Map

Track Data

SID SEASON NUMBER BASIN SUBBASIN NAME ISO_TIME NATURE LAT LON WMO_WIND WMO_PRES WMO_AGENCY TRACK_TYPE DIST2LAND LANDFALL IFLAG USA_AGENCY USA_ATCF_ID USA_LAT USA_LON USA_RECORD USA_STATUS USA_WIND USA_PRES USA_SSHS USA_R34_NE USA_R34_SE USA_R34_SW USA_R34_NW USA_R50_NE USA_R50_SE USA_R50_SW USA_R50_NW USA_R64_NE USA_R64_SE USA_R64_SW USA_R64_NW USA_POCI USA_ROCI USA_RMW USA_EYE TOKYO_LAT TOKYO_LON TOKYO_GRADE TOKYO_WIND TOKYO_PRES TOKYO_R50_DIR TOKYO_R50_LONG TOKYO_R50_SHORT TOKYO_R30_DIR TOKYO_R30_LONG TOKYO_R30_SHORT TOKYO_LAND CMA_LAT CMA_LON CMA_CAT CMA_WIND CMA_PRES HKO_LAT HKO_LON HKO_CAT HKO_WIND HKO_PRES NEWDELHI_LAT NEWDELHI_LON NEWDELHI_GRADE NEWDELHI_WIND NEWDELHI_PRES NEWDELHI_CI NEWDELHI_DP NEWDELHI_POCI REUNION_LAT REUNION_LON REUNION_TYPE REUNION_WIND REUNION_PRES REUNION_TNUM REUNION_CI REUNION_RMW REUNION_R34_NE REUNION_R34_SE REUNION_R34_SW REUNION_R34_NW REUNION_R50_NE REUNION_R50_SE REUNION_R50_SW REUNION_R50_NW REUNION_R64_NE REUNION_R64_SE REUNION_R64_SW REUNION_R64_NW BOM_LAT BOM_LON BOM_TYPE BOM_WIND BOM_PRES BOM_TNUM BOM_CI BOM_RMW BOM_R34_NE BOM_R34_SE BOM_R34_SW BOM_R34_NW BOM_R50_NE BOM_R50_SE BOM_R50_SW BOM_R50_NW BOM_R64_NE BOM_R64_SE BOM_R64_SW BOM_R64_NW BOM_ROCI BOM_POCI BOM_EYE BOM_POS_METHOD BOM_PRES_METHOD NADI_LAT NADI_LON NADI_CAT NADI_WIND NADI_PRES WELLINGTON_LAT WELLINGTON_LON WELLINGTON_WIND WELLINGTON_PRES DS824_LAT DS824_LON DS824_STAGE DS824_WIND DS824_PRES TD9636_LAT TD9636_LON TD9636_STAGE TD9636_WIND TD9636_PRES TD9635_LAT TD9635_LON TD9635_WIND TD9635_PRES TD9635_ROCI NEUMANN_LAT NEUMANN_LON NEUMANN_CLASS NEUMANN_WIND NEUMANN_PRES MLC_LAT MLC_LON MLC_CLASS MLC_WIND MLC_PRES USA_GUST BOM_GUST BOM_GUST_PER REUNION_GUST REUNION_GUST_PER USA_SEAHGT USA_SEARAD_NE USA_SEARAD_SE USA_SEARAD_SW USA_SEARAD_NW STORM_SPEED STORM_DIR
1934315S09070 1935 78 SI MM NOT_NAMED 1934-11-11 06:00:00 NR -8.80000 69.5000 reunion main 1791 1775 _____O________ -1 -8.80000 69.5000 99 9.90000 3 228
1934315S09070 1935 78 SI MM NOT_NAMED 1934-11-11 09:00:00 NR -8.90927 69.3793 main 1775 1760 _____P________ -1 -8.90927 69.3793 99 3 228
1934315S09070 1935 78 SI MM NOT_NAMED 1934-11-11 12:00:00 NR -9.02121 69.2523 main 1760 1736 _____P________ -1 -9.02121 69.2523 99 4 229
1934315S09070 1935 78 SI MM NOT_NAMED 1934-11-11 15:00:00 NR -9.13853 69.1125 main 1736 1713 _____P________ -1 -9.13853 69.1125 99 4 231
1934315S09070 1935 78 SI MM NOT_NAMED 1934-11-11 18:00:00 NR -9.26393 68.9537 main 1713 1689 _____P________ -1 -9.26393 68.9537 99 4 232
1934315S09070 1935 78 SI MM NOT_NAMED 1934-11-11 21:00:00 NR -9.40011 68.7695 main 1689 1666 _____P________ -1 -9.40011 68.7695 99 5 234
1934315S09070 1935 78 SI MM NOT_NAMED 1934-11-12 00:00:00 NR -9.54975 68.5534 main 1666 1627 _____P________ -1 -9.54975 68.5534 99 6 236
1934315S09070 1935 78 SI MM NOT_NAMED 1934-11-12 03:00:00 NR -9.71550 68.2991 main 1627 1588 _____P________ -1 -9.71550 68.2991 99 7 237
1934315S09070 1935 78 SI MM NOT_NAMED 1934-11-12 06:00:00 NR -9.90000 68.0000 reunion main 1588 1550 _____O________ -1 -9.90000 68.0000 99 9.90000 7 239
1934315S09070 1935 78 SI MM NOT_NAMED 1934-11-12 09:00:00 NR -10.1047 67.6524 main 1550 1503 _____P________ -1 -10.1047 67.6524 99 8 240
1934315S09070 1935 78 SI MM NOT_NAMED 1934-11-12 12:00:00 NR -10.3268 67.2631 main 1503 1458 _____P________ -1 -10.3268 67.2631 99 9 240
1934315S09070 1935 78 SI MM NOT_NAMED 1934-11-12 15:00:00 NR -10.5621 66.8420 main 1442 1396 _____P________ -1 -10.5621 66.8420 99 10 241
1934315S09070 1935 78 SI MM NOT_NAMED 1934-11-12 18:00:00 NR -10.8067 66.3986 main 1396 1351 _____P________ -1 -10.8067 66.3986 99 10 241
1934315S09070 1935 78 SI MM NOT_NAMED 1934-11-12 21:00:00 NR -11.0567 65.9429 main 1335 1290 _____P________ -1 -11.0567 65.9429 99 10 241
1934315S09070 1935 78 SI MM NOT_NAMED 1934-11-13 00:00:00 NR -11.3081 65.4847 main 1290 1245 _____P________ -1 -11.3081 65.4847 99 10 241
1934315S09070 1935 78 SI MM NOT_NAMED 1934-11-13 03:00:00 NR -11.5571 65.0337 main 1230 1185 _____P________ -1 -11.5571 65.0337 99 10 240
1934315S09070 1935 78 SI MM NOT_NAMED 1934-11-13 06:00:00 NR -11.8000 64.6000 reunion main 1185 1141 _____O________ -1 -11.8000 64.6000 99 9.90000 9 242
1934315S09070 1935 78 SI MM NOT_NAMED 1934-11-13 09:00:00 NR -11.9946 64.2096 main 1141 1104 _____P________ -1 -11.9946 64.2096 99 8 243
1934315S09070 1935 78 SI MM NOT_NAMED 1934-11-13 12:00:00 NR -12.1819 63.8307 main 1098 1060 _____P________ -1 -12.1819 63.8307 99 8 243
1934315S09070 1935 78 SI MM NOT_NAMED 1934-11-13 15:00:00 NR -12.3680 63.4633 main 1060 1027 _____P________ -1 -12.3680 63.4633 99 8 242
1934315S09070 1935 78 SI MM NOT_NAMED 1934-11-13 18:00:00 NR -12.5593 63.1074 main 1017 981 _____P________ -1 -12.5593 63.1074 99 8 240
1934315S09070 1935 78 SI MM NOT_NAMED 1934-11-13 21:00:00 NR -12.7619 62.7632 main 981 939 _____P________ -1 -12.7619 62.7632 99 8 237
1934315S09070 1935 78 SI MM NOT_NAMED 1934-11-14 00:00:00 NR -12.9821 62.4305 main 939 903 _____P________ -1 -12.9821 62.4305 99 8 234
1934315S09070 1935 78 SI MM NOT_NAMED 1934-11-14 03:00:00 NR -13.2260 62.1095 main 903 857 _____P________ -1 -13.2260 62.1095 99 8 230
1934315S09070 1935 78 SI MM NOT_NAMED 1934-11-14 06:00:00 NR -13.5000 61.8000 reunion main 857 812 _____O________ -1 -13.5000 61.8000 99 9.90000 9 226
1934315S09070 1935 78 SI MM NOT_NAMED 1934-11-14 09:00:00 NR -13.8491 61.4564 main 812 752 _____P________ -1 -13.8491 61.4564 99 10 222
1934315S09070 1935 78 SI MM NOT_NAMED 1934-11-14 12:00:00 NR -14.2312 61.1202 main 752 697 _____P________ -1 -14.2312 61.1202 99 10 219
1934315S09070 1935 78 SI MM NOT_NAMED 1934-11-14 15:00:00 NR -14.6353 60.7974 main 697 643 _____P________ -1 -14.6353 60.7974 99 10 217
1934315S09070 1935 78 SI MM NOT_NAMED 1934-11-14 18:00:00 NR -15.0503 60.4940 main 633 588 _____P________ -1 -15.0503 60.4940 99 10 214
1934315S09070 1935 78 SI MM NOT_NAMED 1934-11-14 21:00:00 NR -15.4652 60.2162 main 578 539 _____P________ -1 -15.4652 60.2162 99 10 212
1934315S09070 1935 78 SI MM NOT_NAMED 1934-11-15 00:00:00 NR -15.8691 59.9703 main 529 489 _____P________ -1 -15.8691 59.9703 99 9 209
1934315S09070 1935 78 SI MM NOT_NAMED 1934-11-15 03:00:00 NR -16.2510 59.7627 main 479 439 _____P________ -1 -16.2510 59.7627 99 8 206
1934315S09070 1935 78 SI MM NOT_NAMED 1934-11-15 06:00:00 NR -16.6000 59.6000 reunion main 439 415 _____O________ -1 -16.6000 59.6000 99 9.90000 7 205
1934315S09070 1935 78 SI MM NOT_NAMED 1934-11-15 09:00:00 NR -16.8463 59.4720 main 415 390 _____P________ -1 -16.8463 59.4720 99 5 204
1934315S09070 1935 78 SI MM NOT_NAMED 1934-11-15 12:00:00 NR -17.0595 59.3879 main 380 365 _____P________ -1 -17.0595 59.3879 99 4 197
1934315S09070 1935 78 SI MM NOT_NAMED 1934-11-15 15:00:00 NR -17.2513 59.3441 main 355 345 _____P________ -1 -17.2513 59.3441 99 4 188
1934315S09070 1935 78 SI MM NOT_NAMED 1934-11-15 18:00:00 NR -17.4336 59.3370 main 345 331 _____P________ -1 -17.4336 59.3370 99 4 178
1934315S09070 1935 78 SI MM NOT_NAMED 1934-11-15 21:00:00 NR -17.6179 59.3627 main 331 313 _____P________ -1 -17.6179 59.3627 99 4 169
1934315S09070 1935 78 SI MM NOT_NAMED 1934-11-16 00:00:00 NR -17.8160 59.4175 main 313 301 _____P________ -1 -17.8160 59.4175 99 4 162
1934315S09070 1935 78 SI MM NOT_NAMED 1934-11-16 03:00:00 NR -18.0395 59.4979 main 301 283 _____P________ -1 -18.0395 59.4979 99 5 160
1934315S09070 1935 78 SI MM NOT_NAMED 1934-11-16 06:00:00 NR -18.3000 59.6000 reunion main 283 261 _____O________ -1 -18.3000 59.6000 99 9.90000 7 163
1934315S09070 1935 78 SI MM NOT_NAMED 1934-11-16 09:00:00 NR -18.6785 59.7062 main 261 246 _____P________ -1 -18.6785 59.7062 99 8 164
1934315S09070 1935 78 SI MM NOT_NAMED 1934-11-16 12:00:00 NR -19.0957 59.8407 main 246 241 _____P________ -1 -19.0957 59.8407 99 9 162
1934315S09070 1935 78 SI MM NOT_NAMED 1934-11-16 15:00:00 NR -19.5371 59.9975 main 246 239 _____P________ -1 -19.5371 59.9975 99 10 161
1934315S09070 1935 78 SI MM NOT_NAMED 1934-11-16 18:00:00 NR -19.9882 60.1705 main 252 250 _____P________ -1 -19.9882 60.1705 99 10 159
1934315S09070 1935 78 SI MM NOT_NAMED 1934-11-16 21:00:00 NR -20.4345 60.3537 main 271 271 _____P________ -1 -20.4345 60.3537 99 9 158
1934315S09070 1935 78 SI MM NOT_NAMED 1934-11-17 00:00:00 NR -20.8616 60.5406 main 288 288 _____P________ -1 -20.8616 60.5406 99 9 157
1934315S09070 1935 78 SI MM NOT_NAMED 1934-11-17 03:00:00 NR -21.2548 60.7249 main 321 321 _____P________ -1 -21.2548 60.7249 99 8 156
1934315S09070 1935 78 SI MM NOT_NAMED 1934-11-17 06:00:00 NR -21.6000 60.9000 reunion main 353 353 _____O________ -1 -21.6000 60.9000 99 9.90000 7 154
1934315S09070 1935 78 SI MM NOT_NAMED 1934-11-17 09:00:00 NR -21.8864 61.0606 main 385 385 _____P________ -1 -21.8864 61.0606 99 6 151
1934315S09070 1935 78 SI MM NOT_NAMED 1934-11-17 12:00:00 NR -22.1182 61.2071 main 404 404 _____P________ -1 -22.1182 61.2071 99 5 148
1934315S09070 1935 78 SI MM NOT_NAMED 1934-11-17 15:00:00 NR -22.3032 61.3414 main 423 423 _____P________ -1 -22.3032 61.3414 99 4 144
1934315S09070 1935 78 SI MM NOT_NAMED 1934-11-17 18:00:00 NR -22.4493 61.4655 main 446 446 _____P________ -1 -22.4493 61.4655 99 3 140
1934315S09070 1935 78 SI MM NOT_NAMED 1934-11-17 21:00:00 NR -22.5642 61.5813 main 466 466 _____P________ -1 -22.5642 61.5813 99 3 135
1934315S09070 1935 78 SI MM NOT_NAMED 1934-11-18 00:00:00 NR -22.6558 61.6909 main 481 481 _____P________ -1 -22.6558 61.6909 99 3 130
1934315S09070 1935 78 SI MM NOT_NAMED 1934-11-18 03:00:00 NR -22.7318 61.7965 main 489 489 _____P________ -1 -22.7318 61.7965 99 2 127
1934315S09070 1935 78 SI MM NOT_NAMED 1934-11-18 06:00:00 NR -22.8000 61.9000 reunion main 504 _____O________ -1 -22.8000 61.9000 99 9.90000 2 125

About IBTrACS Database

This database is a web-friendly format of International Best Track Archive for Climate Stewardship (IBTrACS), a global best track data archive curated by NOAA dating back to 1842.

Updated: 2021-10-08